TAF KMSN
AMD KMSN 091008Z 0910/1006 14007KT P6SM BKN110 FM091300 14012KT P6SM VCSH OVC100 WS020/17040KT FM091500 14012G23KT 6SM -SN BR OVC040 FM091800 15011G22KT P6SM VCSH OVC035 FM091900 16010G21KT P6SM OVC030 FM092200 20005KT P6SM BKN040=
METAR KMSN
WC KMSN
WS KMSN
WV KMSN